sensor_id;sensor_type;location;lat;lon;timestamp;P1;durP1;ratioP1;P2;durP2;ratioP2
25988;SDS011;13778;48.236;9.894;2023-04-27T00:01:08;8.95;;;6.18;;
25988;SDS011;13778;48.236;9.894;2023-04-27T00:03:59;13.13;;;6.13;;
25988;SDS011;13778;48.236;9.894;2023-04-27T00:06:49;13.02;;;6.47;;
25988;SDS011;13778;48.236;9.894;2023-04-27T00:09:40;9.95;;;5.60;;
25988;SDS011;13778;48.236;9.894;2023-04-27T00:12:30;8.32;;;6.05;;
25988;SDS011;13778;48.236;9.894;2023-04-27T00:15:21;10.38;;;6.22;;
25988;SDS011;13778;48.236;9.894;2023-04-27T00:18:13;8.55;;;5.63;;
25988;SDS011;13778;48.236;9.894;2023-04-27T00:21:03;7.72;;;5.43;;
25988;SDS011;13778;48.236;9.894;2023-04-27T00:23:54;8.90;;;5.90;;
25988;SDS011;13778;48.236;9.894;2023-04-27T00:26:44;10.52;;;5.93;;
25988;SDS011;13778;48.236;9.894;2023-04-27T00:29:35;6.03;;;5.07;;
25988;SDS011;13778;48.236;9.894;2023-04-27T00:32:25;7.85;;;6.15;;
25988;SDS011;13778;48.236;9.894;2023-04-27T00:35:17;9.10;;;6.32;;
25988;SDS011;13778;48.236;9.894;2023-04-27T00:38:08;9.70;;;6.22;;
25988;SDS011;13778;48.236;9.894;2023-04-27T00:40:59;11.82;;;5.53;;
25988;SDS011;13778;48.236;9.894;2023-04-27T00:43:50;9.43;;;5.83;;
25988;SDS011;13778;48.236;9.894;2023-04-27T00:46:40;9.60;;;5.43;;
25988;SDS011;13778;48.236;9.894;2023-04-27T00:49:31;8.85;;;6.00;;
25988;SDS011;13778;48.236;9.894;2023-04-27T00:52:23;8.00;;;5.65;;
25988;SDS011;13778;48.236;9.894;2023-04-27T00:58:03;9.77;;;6.28;;
25988;SDS011;13778;48.236;9.894;2023-04-27T01:00:54;11.23;;;5.88;;
25988;SDS011;13778;48.236;9.894;2023-04-27T01:03:45;10.32;;;6.22;;
25988;SDS011;13778;48.236;9.894;2023-04-27T01:06:36;9.43;;;5.70;;
25988;SDS011;13778;48.236;9.894;2023-04-27T01:09:28;10.57;;;6.35;;
25988;SDS011;13778;48.236;9.894;2023-04-27T01:12:19;10.90;;;5.57;;
25988;SDS011;13778;48.236;9.894;2023-04-27T01:15:09;10.18;;;6.30;;
25988;SDS011;13778;48.236;9.894;2023-04-27T01:18:00;9.13;;;5.75;;
25988;SDS011;13778;48.236;9.894;2023-04-27T01:20:51;11.60;;;6.13;;
25988;SDS011;13778;48.236;9.894;2023-04-27T01:23:44;9.30;;;6.10;;
25988;SDS011;13778;48.236;9.894;2023-04-27T01:29:24;7.50;;;5.85;;
25988;SDS011;13778;48.236;9.894;2023-04-27T01:32:14;11.45;;;6.68;;
25988;SDS011;13778;48.236;9.894;2023-04-27T01:35:05;8.38;;;5.25;;
25988;SDS011;13778;48.236;9.894;2023-04-27T01:37:56;9.30;;;5.63;;
25988;SDS011;13778;48.236;9.894;2023-04-27T01:40:48;10.45;;;6.07;;
25988;SDS011;13778;48.236;9.894;2023-04-27T01:46:30;8.77;;;6.25;;
25988;SDS011;13778;48.236;9.894;2023-04-27T01:49:20;12.30;;;6.10;;
25988;SDS011;13778;48.236;9.894;2023-04-27T01:52:11;11.63;;;5.85;;
25988;SDS011;13778;48.236;9.894;2023-04-27T01:55:01;8.77;;;5.47;;
25988;SDS011;13778;48.236;9.894;2023-04-27T01:57:53;7.25;;;6.20;;
25988;SDS011;13778;48.236;9.894;2023-04-27T02:03:33;7.93;;;5.88;;
25988;SDS011;13778;48.236;9.894;2023-04-27T02:06:24;10.45;;;6.07;;
25988;SDS011;13778;48.236;9.894;2023-04-27T02:09:15;11.07;;;5.90;;
25988;SDS011;13778;48.236;9.894;2023-04-27T02:12:06;12.93;;;5.78;;
25988;SDS011;13778;48.236;9.894;2023-04-27T02:14:58;8.82;;;5.85;;
25988;SDS011;13778;48.236;9.894;2023-04-27T02:17:48;7.25;;;6.07;;
25988;SDS011;13778;48.236;9.894;2023-04-27T02:20:38;11.13;;;6.57;;
25988;SDS011;13778;48.236;9.894;2023-04-27T02:23:29;7.95;;;6.13;;
25988;SDS011;13778;48.236;9.894;2023-04-27T02:26:20;9.43;;;6.10;;
25988;SDS011;13778;48.236;9.894;2023-04-27T02:29:10;13.52;;;6.00;;
25988;SDS011;13778;48.236;9.894;2023-04-27T02:32:02;7.50;;;6.20;;
25988;SDS011;13778;48.236;9.894;2023-04-27T02:34:52;11.13;;;6.45;;
25988;SDS011;13778;48.236;9.894;2023-04-27T02:37:45;6.35;;;5.30;;
25988;SDS011;13778;48.236;9.894;2023-04-27T02:40:35;10.07;;;5.88;;
25988;SDS011;13778;48.236;9.894;2023-04-27T02:43:26;8.05;;;6.03;;
25988;SDS011;13778;48.236;9.894;2023-04-27T02:46:16;8.85;;;5.47;;
25988;SDS011;13778;48.236;9.894;2023-04-27T02:49:08;8.35;;;5.75;;
25988;SDS011;13778;48.236;9.894;2023-04-27T02:51:58;10.65;;;6.75;;
25988;SDS011;13778;48.236;9.894;2023-04-27T02:54:49;8.45;;;5.80;;
25988;SDS011;13778;48.236;9.894;2023-04-27T02:57:39;8.52;;;5.93;;
25988;SDS011;13778;48.236;9.894;2023-04-27T03:00:30;8.27;;;6.55;;
25988;SDS011;13778;48.236;9.894;2023-04-27T03:03:20;9.65;;;5.97;;
25988;SDS011;13778;48.236;9.894;2023-04-27T03:06:12;12.05;;;8.00;;
25988;SDS011;13778;48.236;9.894;2023-04-27T03:09:03;13.95;;;7.70;;
25988;SDS011;13778;48.236;9.894;2023-04-27T03:11:53;17.52;;;8.50;;
25988;SDS011;13778;48.236;9.894;2023-04-27T03:14:44;13.13;;;9.60;;
25988;SDS011;13778;48.236;9.894;2023-04-27T03:17:34;12.93;;;8.30;;
25988;SDS011;13778;48.236;9.894;2023-04-27T03:20:25;9.13;;;7.18;;
25988;SDS011;13778;48.236;9.894;2023-04-27T03:23:17;14.23;;;7.80;;
25988;SDS011;13778;48.236;9.894;2023-04-27T03:26:07;12.57;;;8.10;;
25988;SDS011;13778;48.236;9.894;2023-04-27T03:28:58;11.60;;;8.02;;
25988;SDS011;13778;48.236;9.894;2023-04-27T03:31:49;14.48;;;8.32;;
25988;SDS011;13778;48.236;9.894;2023-04-27T03:34:39;13.80;;;7.70;;
25988;SDS011;13778;48.236;9.894;2023-04-27T03:37:29;21.83;;;9.18;;
25988;SDS011;13778;48.236;9.894;2023-04-27T03:40:22;11.30;;;7.75;;
25988;SDS011;13778;48.236;9.894;2023-04-27T03:43:12;11.77;;;7.35;;
25988;SDS011;13778;48.236;9.894;2023-04-27T03:46:02;11.05;;;7.10;;
25988;SDS011;13778;48.236;9.894;2023-04-27T03:48:53;14.85;;;8.35;;
25988;SDS011;13778;48.236;9.894;2023-04-27T03:51:43;12.20;;;7.28;;
25988;SDS011;13778;48.236;9.894;2023-04-27T03:54:34;9.07;;;7.25;;
25988;SDS011;13778;48.236;9.894;2023-04-27T03:57:26;12.57;;;7.22;;
25988;SDS011;13778;48.236;9.894;2023-04-27T04:03:06;9.20;;;7.30;;
25988;SDS011;13778;48.236;9.894;2023-04-27T04:05:56;11.88;;;7.38;;
25988;SDS011;13778;48.236;9.894;2023-04-27T04:08:47;13.65;;;8.23;;
25988;SDS011;13778;48.236;9.894;2023-04-27T04:11:37;19.02;;;10.63;;
25988;SDS011;13778;48.236;9.894;2023-04-27T04:14:29;15.20;;;8.85;;
25988;SDS011;13778;48.236;9.894;2023-04-27T04:17:19;10.85;;;8.10;;
25988;SDS011;13778;48.236;9.894;2023-04-27T04:20:10;13.10;;;8.18;;
25988;SDS011;13778;48.236;9.894;2023-04-27T04:23:01;10.02;;;8.27;;
25988;SDS011;13778;48.236;9.894;2023-04-27T04:25:51;11.75;;;7.93;;
25988;SDS011;13778;48.236;9.894;2023-04-27T04:28:42;14.60;;;10.50;;
25988;SDS011;13778;48.236;9.894;2023-04-27T04:31:35;14.25;;;9.00;;
25988;SDS011;13778;48.236;9.894;2023-04-27T04:34:26;18.23;;;8.07;;
25988;SDS011;13778;48.236;9.894;2023-04-27T04:37:17;10.70;;;7.78;;
25988;SDS011;13778;48.236;9.894;2023-04-27T04:40:08;11.70;;;8.57;;
25988;SDS011;13778;48.236;9.894;2023-04-27T04:42:59;17.70;;;9.05;;
25988;SDS011;13778;48.236;9.894;2023-04-27T04:45:49;15.00;;;8.57;;
25988;SDS011;13778;48.236;9.894;2023-04-27T04:48:41;20.27;;;9.38;;
25988;SDS011;13778;48.236;9.894;2023-04-27T04:54:21;14.52;;;9.20;;
25988;SDS011;13778;48.236;9.894;2023-04-27T04:57:12;17.50;;;8.55;;
25988;SDS011;13778;48.236;9.894;2023-04-27T05:00:03;13.88;;;8.20;;
25988;SDS011;13778;48.236;9.894;2023-04-27T05:02:59;20.27;;;8.35;;
25988;SDS011;13778;48.236;9.894;2023-04-27T05:05:51;17.52;;;9.15;;
25988;SDS011;13778;48.236;9.894;2023-04-27T05:08:41;14.93;;;8.77;;
25988;SDS011;13778;48.236;9.894;2023-04-27T05:11:32;13.32;;;8.40;;
25988;SDS011;13778;48.236;9.894;2023-04-27T05:14:22;16.60;;;9.18;;
25988;SDS011;13778;48.236;9.894;2023-04-27T05:17:13;14.52;;;8.48;;
25988;SDS011;13778;48.236;9.894;2023-04-27T05:20:04;10.00;;;7.50;;
25988;SDS011;13778;48.236;9.894;2023-04-27T05:22:56;11.95;;;8.32;;
25988;SDS011;13778;48.236;9.894;2023-04-27T05:28:37;9.82;;;7.90;;
25988;SDS011;13778;48.236;9.894;2023-04-27T05:31:27;22.30;;;8.80;;
25988;SDS011;13778;48.236;9.894;2023-04-27T05:34:18;14.98;;;7.57;;
25988;SDS011;13778;48.236;9.894;2023-04-27T05:37:09;14.95;;;7.82;;
25988;SDS011;13778;48.236;9.894;2023-04-27T05:40:01;12.05;;;7.18;;
25988;SDS011;13778;48.236;9.894;2023-04-27T05:42:52;13.18;;;7.72;;
25988;SDS011;13778;48.236;9.894;2023-04-27T05:45:43;14.57;;;7.90;;
25988;SDS011;13778;48.236;9.894;2023-04-27T05:48:33;10.77;;;7.65;;
25988;SDS011;13778;48.236;9.894;2023-04-27T05:51:24;13.00;;;7.60;;
25988;SDS011;13778;48.236;9.894;2023-04-27T05:54:15;11.43;;;7.80;;
25988;SDS011;13778;48.236;9.894;2023-04-27T05:57:07;14.77;;;8.15;;
25988;SDS011;13778;48.236;9.894;2023-04-27T06:02:48;17.15;;;8.05;;
25988;SDS011;13778;48.236;9.894;2023-04-27T06:05:38;10.52;;;7.78;;
25988;SDS011;13778;48.236;9.894;2023-04-27T06:08:29;13.20;;;7.95;;
25988;SDS011;13778;48.236;9.894;2023-04-27T06:11:19;11.05;;;7.70;;
25988;SDS011;13778;48.236;9.894;2023-04-27T06:14:12;13.75;;;7.68;;
25988;SDS011;13778;48.236;9.894;2023-04-27T06:17:02;12.75;;;8.32;;
25988;SDS011;13778;48.236;9.894;2023-04-27T06:19:53;11.70;;;6.90;;
25988;SDS011;13778;48.236;9.894;2023-04-27T06:22:43;9.43;;;7.60;;
25988;SDS011;13778;48.236;9.894;2023-04-27T06:25:34;11.93;;;6.90;;
25988;SDS011;13778;48.236;9.894;2023-04-27T06:28:27;9.63;;;7.85;;
25988;SDS011;13778;48.236;9.894;2023-04-27T06:31:19;12.90;;;7.93;;
25988;SDS011;13778;48.236;9.894;2023-04-27T06:36:59;17.65;;;9.00;;
25988;SDS011;13778;48.236;9.894;2023-04-27T06:39:50;14.88;;;7.93;;
25988;SDS011;13778;48.236;9.894;2023-04-27T06:42:40;12.30;;;8.00;;
25988;SDS011;13778;48.236;9.894;2023-04-27T06:45:31;20.08;;;8.80;;
25988;SDS011;13778;48.236;9.894;2023-04-27T06:48:22;13.02;;;8.00;;
25988;SDS011;13778;48.236;9.894;2023-04-27T06:54:04;13.02;;;8.75;;
25988;SDS011;13778;48.236;9.894;2023-04-27T06:56:54;12.65;;;8.63;;
25988;SDS011;13778;48.236;9.894;2023-04-27T06:59:45;14.63;;;8.82;;
25988;SDS011;13778;48.236;9.894;2023-04-27T07:02:35;14.00;;;10.20;;
25988;SDS011;13778;48.236;9.894;2023-04-27T07:05:27;13.88;;;9.57;;
25988;SDS011;13778;48.236;9.894;2023-04-27T07:08:18;17.80;;;9.13;;
25988;SDS011;13778;48.236;9.894;2023-04-27T07:11:08;13.52;;;8.73;;
25988;SDS011;13778;48.236;9.894;2023-04-27T07:13:59;18.42;;;9.27;;
25988;SDS011;13778;48.236;9.894;2023-04-27T07:16:49;15.90;;;8.32;;
25988;SDS011;13778;48.236;9.894;2023-04-27T07:19:40;16.13;;;9.02;;
25988;SDS011;13778;48.236;9.894;2023-04-27T07:22:32;22.85;;;9.93;;
25988;SDS011;13778;48.236;9.894;2023-04-27T07:25:22;14.88;;;8.82;;
25988;SDS011;13778;48.236;9.894;2023-04-27T07:28:13;14.25;;;9.02;;
25988;SDS011;13778;48.236;9.894;2023-04-27T07:31:03;11.43;;;8.30;;
25988;SDS011;13778;48.236;9.894;2023-04-27T07:33:54;15.10;;;9.07;;
25988;SDS011;13778;48.236;9.894;2023-04-27T07:36:44;16.88;;;8.98;;
25988;SDS011;13778;48.236;9.894;2023-04-27T07:39:36;14.90;;;8.02;;
25988;SDS011;13778;48.236;9.894;2023-04-27T07:45:17;12.65;;;9.10;;
25988;SDS011;13778;48.236;9.894;2023-04-27T07:48:07;15.25;;;8.50;;
25988;SDS011;13778;48.236;9.894;2023-04-27T07:50:58;14.97;;;8.50;;
25988;SDS011;13778;48.236;9.894;2023-04-27T07:53:49;19.92;;;8.95;;
25988;SDS011;13778;48.236;9.894;2023-04-27T07:56:41;11.05;;;8.45;;
25988;SDS011;13778;48.236;9.894;2023-04-27T07:59:32;13.77;;;7.93;;
25988;SDS011;13778;48.236;9.894;2023-04-27T08:02:22;14.02;;;8.68;;
25988;SDS011;13778;48.236;9.894;2023-04-27T08:05:13;15.20;;;8.63;;
25988;SDS011;13778;48.236;9.894;2023-04-27T08:08:04;14.48;;;11.30;;
25988;SDS011;13778;48.236;9.894;2023-04-27T08:10:54;14.30;;;8.50;;
25988;SDS011;13778;48.236;9.894;2023-04-27T08:13:46;11.25;;;8.38;;
25988;SDS011;13778;48.236;9.894;2023-04-27T08:16:36;11.27;;;8.77;;
25988;SDS011;13778;48.236;9.894;2023-04-27T08:19:27;14.40;;;9.18;;
25988;SDS011;13778;48.236;9.894;2023-04-27T08:22:18;13.20;;;8.32;;
25988;SDS011;13778;48.236;9.894;2023-04-27T08:25:08;16.45;;;11.10;;
25988;SDS011;13778;48.236;9.894;2023-04-27T08:27:59;19.38;;;14.48;;
25988;SDS011;13778;48.236;9.894;2023-04-27T08:30:52;14.75;;;9.30;;
25988;SDS011;13778;48.236;9.894;2023-04-27T08:36:32;15.10;;;8.98;;
25988;SDS011;13778;48.236;9.894;2023-04-27T08:39:23;14.13;;;8.63;;
25988;SDS011;13778;48.236;9.894;2023-04-27T08:42:13;11.80;;;8.07;;
25988;SDS011;13778;48.236;9.894;2023-04-27T08:45:05;10.07;;;8.18;;
25988;SDS011;13778;48.236;9.894;2023-04-27T08:50:48;9.43;;;8.07;;
25988;SDS011;13778;48.236;9.894;2023-04-27T08:53:39;16.33;;;8.93;;
25988;SDS011;13778;48.236;9.894;2023-04-27T08:56:34;22.60;;;8.50;;
25988;SDS011;13778;48.236;9.894;2023-04-27T08:59:25;20.30;;;7.95;;
25988;SDS011;13778;48.236;9.894;2023-04-27T09:02:18;12.77;;;6.95;;
25988;SDS011;13778;48.236;9.894;2023-04-27T09:05:13;10.02;;;7.03;;
25988;SDS011;13778;48.236;9.894;2023-04-27T09:08:06;13.35;;;7.15;;
25988;SDS011;13778;48.236;9.894;2023-04-27T09:10:58;15.20;;;7.00;;
25988;SDS011;13778;48.236;9.894;2023-04-27T09:13:49;8.43;;;6.75;;
25988;SDS011;13778;48.236;9.894;2023-04-27T09:16:39;11.20;;;7.45;;
25988;SDS011;13778;48.236;9.894;2023-04-27T09:19:30;8.75;;;6.82;;
25988;SDS011;13778;48.236;9.894;2023-04-27T09:22:21;8.68;;;6.18;;
25988;SDS011;13778;48.236;9.894;2023-04-27T09:25:22;9.93;;;5.40;;
25988;SDS011;13778;48.236;9.894;2023-04-27T09:28:13;12.25;;;6.25;;
25988;SDS011;13778;48.236;9.894;2023-04-27T09:31:03;8.03;;;6.00;;
25988;SDS011;13778;48.236;9.894;2023-04-27T09:33:54;9.65;;;6.90;;
25988;SDS011;13778;48.236;9.894;2023-04-27T09:36:44;11.27;;;6.82;;
25988;SDS011;13778;48.236;9.894;2023-04-27T09:39:37;8.20;;;5.88;;
25988;SDS011;13778;48.236;9.894;2023-04-27T09:42:29;8.27;;;6.18;;
25988;SDS011;13778;48.236;9.894;2023-04-27T09:45:20;9.93;;;6.03;;
25988;SDS011;13778;48.236;9.894;2023-04-27T09:48:11;9.25;;;5.72;;
25988;SDS011;13778;48.236;9.894;2023-04-27T09:51:02;9.05;;;5.60;;
25988;SDS011;13778;48.236;9.894;2023-04-27T09:53:53;7.78;;;5.47;;
25988;SDS011;13778;48.236;9.894;2023-04-27T09:56:47;5.82;;;4.25;;
25988;SDS011;13778;48.236;9.894;2023-04-27T09:59:47;9.57;;;4.80;;
25988;SDS011;13778;48.236;9.894;2023-04-27T10:02:44;5.20;;;4.10;;
25988;SDS011;13778;48.236;9.894;2023-04-27T10:05:46;12.43;;;5.20;;
25988;SDS011;13778;48.236;9.894;2023-04-27T10:08:39;10.20;;;4.10;;
25988;SDS011;13778;48.236;9.894;2023-04-27T10:11:36;5.77;;;4.17;;
25988;SDS011;13778;48.236;9.894;2023-04-27T10:14:27;6.80;;;4.68;;
25988;SDS011;13778;48.236;9.894;2023-04-27T10:17:22;6.93;;;4.10;;
25988;SDS011;13778;48.236;9.894;2023-04-27T10:20:13;7.78;;;4.28;;
25988;SDS011;13778;48.236;9.894;2023-04-27T10:23:04;5.90;;;4.17;;
25988;SDS011;13778;48.236;9.894;2023-04-27T10:25:55;6.55;;;4.20;;
25988;SDS011;13778;48.236;9.894;2023-04-27T10:28:56;9.77;;;5.00;;
25988;SDS011;13778;48.236;9.894;2023-04-27T10:31:47;6.00;;;4.53;;
25988;SDS011;13778;48.236;9.894;2023-04-27T10:34:39;7.28;;;4.40;;
25988;SDS011;13778;48.236;9.894;2023-04-27T10:40:19;9.32;;;4.35;;
25988;SDS011;13778;48.236;9.894;2023-04-27T10:43:10;5.82;;;4.30;;
25988;SDS011;13778;48.236;9.894;2023-04-27T10:46:08;7.32;;;4.50;;
25988;SDS011;13778;48.236;9.894;2023-04-27T10:48:59;8.48;;;4.38;;
25988;SDS011;13778;48.236;9.894;2023-04-27T10:51:51;4.75;;;3.88;;
25988;SDS011;13778;48.236;9.894;2023-04-27T10:54:44;6.22;;;4.45;;
25988;SDS011;13778;48.236;9.894;2023-04-27T10:57:43;5.85;;;4.43;;
25988;SDS011;13778;48.236;9.894;2023-04-27T11:00:34;7.35;;;4.72;;
25988;SDS011;13778;48.236;9.894;2023-04-27T11:03:25;4.93;;;3.85;;
25988;SDS011;13778;48.236;9.894;2023-04-27T11:06:16;8.40;;;4.20;;
25988;SDS011;13778;48.236;9.894;2023-04-27T11:09:08;9.68;;;4.53;;
25988;SDS011;13778;48.236;9.894;2023-04-27T11:11:59;6.53;;;4.68;;
25988;SDS011;13778;48.236;9.894;2023-04-27T11:14:49;6.82;;;3.75;;
25988;SDS011;13778;48.236;9.894;2023-04-27T11:17:40;7.28;;;3.75;;
25988;SDS011;13778;48.236;9.894;2023-04-27T11:20:31;8.80;;;4.03;;
25988;SDS011;13778;48.236;9.894;2023-04-27T11:23:22;7.90;;;4.03;;
25988;SDS011;13778;48.236;9.894;2023-04-27T11:26:14;5.22;;;3.90;;
25988;SDS011;13778;48.236;9.894;2023-04-27T11:29:05;6.65;;;3.75;;
25988;SDS011;13778;48.236;9.894;2023-04-27T11:31:57;4.85;;;3.88;;
25988;SDS011;13778;48.236;9.894;2023-04-27T11:34:48;6.63;;;3.88;;
25988;SDS011;13778;48.236;9.894;2023-04-27T11:37:39;4.85;;;3.40;;
25988;SDS011;13778;48.236;9.894;2023-04-27T11:40:29;4.00;;;2.95;;
25988;SDS011;13778;48.236;9.894;2023-04-27T11:43:24;8.63;;;4.32;;
25988;SDS011;13778;48.236;9.894;2023-04-27T11:46:14;5.78;;;3.38;;
25988;SDS011;13778;48.236;9.894;2023-04-27T11:49:05;6.78;;;3.53;;
25988;SDS011;13778;48.236;9.894;2023-04-27T11:51:56;4.32;;;3.65;;
25988;SDS011;13778;48.236;9.894;2023-04-27T11:54:47;4.13;;;3.60;;
25988;SDS011;13778;48.236;9.894;2023-04-27T11:57:38;6.57;;;3.43;;
25988;SDS011;13778;48.236;9.894;2023-04-27T12:00:30;5.50;;;3.40;;
25988;SDS011;13778;48.236;9.894;2023-04-27T12:06:11;5.40;;;3.60;;
25988;SDS011;13778;48.236;9.894;2023-04-27T12:09:01;5.32;;;3.60;;
25988;SDS011;13778;48.236;9.894;2023-04-27T12:11:53;5.60;;;3.03;;
25988;SDS011;13778;48.236;9.894;2023-04-27T12:14:44;5.13;;;3.50;;
25988;SDS011;13778;48.236;9.894;2023-04-27T12:17:36;7.57;;;3.30;;
25988;SDS011;13778;48.236;9.894;2023-04-27T12:20:26;8.25;;;4.03;;
25988;SDS011;13778;48.236;9.894;2023-04-27T12:23:17;4.93;;;3.47;;
25988;SDS011;13778;48.236;9.894;2023-04-27T12:26:07;4.13;;;3.40;;
25988;SDS011;13778;48.236;9.894;2023-04-27T12:28:57;6.07;;;3.10;;
25988;SDS011;13778;48.236;9.894;2023-04-27T12:31:48;4.15;;;2.30;;
25988;SDS011;13778;48.236;9.894;2023-04-27T12:34:40;4.85;;;2.70;;
25988;SDS011;13778;48.236;9.894;2023-04-27T12:37:31;5.30;;;3.13;;
25988;SDS011;13778;48.236;9.894;2023-04-27T12:40:21;5.28;;;3.10;;
25988;SDS011;13778;48.236;9.894;2023-04-27T12:43:12;3.58;;;3.10;;
25988;SDS011;13778;48.236;9.894;2023-04-27T12:46:02;5.45;;;3.47;;
25988;SDS011;13778;48.236;9.894;2023-04-27T12:48:53;3.95;;;3.00;;
25988;SDS011;13778;48.236;9.894;2023-04-27T12:51:46;5.00;;;2.88;;
25988;SDS011;13778;48.236;9.894;2023-04-27T12:54:39;7.82;;;3.97;;
25988;SDS011;13778;48.236;9.894;2023-04-27T12:57:30;4.53;;;3.40;;
25988;SDS011;13778;48.236;9.894;2023-04-27T13:00:20;5.03;;;3.47;;
25988;SDS011;13778;48.236;9.894;2023-04-27T13:03:11;4.20;;;3.72;;
25988;SDS011;13778;48.236;9.894;2023-04-27T13:06:01;6.63;;;3.47;;
25988;SDS011;13778;48.236;9.894;2023-04-27T13:08:53;9.75;;;4.13;;
25988;SDS011;13778;48.236;9.894;2023-04-27T13:11:43;4.63;;;3.22;;
25988;SDS011;13778;48.236;9.894;2023-04-27T13:14:34;8.02;;;3.88;;
25988;SDS011;13778;48.236;9.894;2023-04-27T13:17:24;3.65;;;3.13;;
25988;SDS011;13778;48.236;9.894;2023-04-27T13:20:15;7.93;;;3.97;;
25988;SDS011;13778;48.236;9.894;2023-04-27T13:23:05;6.97;;;3.20;;
25988;SDS011;13778;48.236;9.894;2023-04-27T13:25:57;7.03;;;3.92;;
25988;SDS011;13778;48.236;9.894;2023-04-27T13:31:38;5.43;;;3.58;;
25988;SDS011;13778;48.236;9.894;2023-04-27T13:34:29;6.03;;;3.45;;
25988;SDS011;13778;48.236;9.894;2023-04-27T13:37:20;6.03;;;3.00;;
25988;SDS011;13778;48.236;9.894;2023-04-27T13:40:11;5.28;;;3.92;;
25988;SDS011;13778;48.236;9.894;2023-04-27T13:43:02;7.80;;;3.42;;
25988;SDS011;13778;48.236;9.894;2023-04-27T13:48:43;5.18;;;3.42;;
25988;SDS011;13778;48.236;9.894;2023-04-27T13:51:34;5.85;;;3.10;;
25988;SDS011;13778;48.236;9.894;2023-04-27T13:54:24;7.68;;;3.45;;
25988;SDS011;13778;48.236;9.894;2023-04-27T13:57:15;16.27;;;3.40;;
25988;SDS011;13778;48.236;9.894;2023-04-27T14:00:07;4.78;;;3.30;;
25988;SDS011;13778;48.236;9.894;2023-04-27T14:02:59;3.65;;;2.97;;
25988;SDS011;13778;48.236;9.894;2023-04-27T14:05:52;3.92;;;2.78;;
25988;SDS011;13778;48.236;9.894;2023-04-27T14:08:42;5.85;;;3.55;;
25988;SDS011;13778;48.236;9.894;2023-04-27T14:11:33;4.75;;;3.03;;
25988;SDS011;13778;48.236;9.894;2023-04-27T14:14:23;4.07;;;1.95;;
25988;SDS011;13778;48.236;9.894;2023-04-27T14:17:15;3.15;;;2.10;;
25988;SDS011;13778;48.236;9.894;2023-04-27T14:20:07;4.55;;;2.30;;
25988;SDS011;13778;48.236;9.894;2023-04-27T14:22:58;2.85;;;2.45;;
25988;SDS011;13778;48.236;9.894;2023-04-27T14:25:48;7.35;;;2.97;;
25988;SDS011;13778;48.236;9.894;2023-04-27T14:28:39;4.88;;;2.45;;
25988;SDS011;13778;48.236;9.894;2023-04-27T14:31:29;4.47;;;2.70;;
25988;SDS011;13778;48.236;9.894;2023-04-27T14:34:21;3.60;;;2.17;;
25988;SDS011;13778;48.236;9.894;2023-04-27T14:40:02;4.05;;;2.78;;
25988;SDS011;13778;48.236;9.894;2023-04-27T14:42:52;3.17;;;2.45;;
25988;SDS011;13778;48.236;9.894;2023-04-27T14:45:42;6.18;;;2.90;;
25988;SDS011;13778;48.236;9.894;2023-04-27T14:48:33;3.53;;;2.88;;
25988;SDS011;13778;48.236;9.894;2023-04-27T14:51:25;3.15;;;2.85;;
25988;SDS011;13778;48.236;9.894;2023-04-27T14:54:16;3.33;;;2.60;;
25988;SDS011;13778;48.236;9.894;2023-04-27T14:57:07;4.13;;;3.20;;
25988;SDS011;13778;48.236;9.894;2023-04-27T14:59:58;3.88;;;3.00;;
25988;SDS011;13778;48.236;9.894;2023-04-27T15:02:48;4.80;;;3.03;;
25988;SDS011;13778;48.236;9.894;2023-04-27T15:05:39;6.65;;;3.47;;
25988;SDS011;13778;48.236;9.894;2023-04-27T15:08:30;4.75;;;2.60;;
25988;SDS011;13778;48.236;9.894;2023-04-27T15:14:11;5.00;;;3.03;;
25988;SDS011;13778;48.236;9.894;2023-04-27T15:17:01;3.70;;;3.00;;
25988;SDS011;13778;48.236;9.894;2023-04-27T15:19:53;3.03;;;2.50;;
25988;SDS011;13778;48.236;9.894;2023-04-27T15:22:43;5.13;;;3.05;;
25988;SDS011;13778;48.236;9.894;2023-04-27T15:25:35;4.53;;;3.13;;
25988;SDS011;13778;48.236;9.894;2023-04-27T15:28:25;4.28;;;3.08;;
25988;SDS011;13778;48.236;9.894;2023-04-27T15:31:16;2.88;;;2.50;;
25988;SDS011;13778;48.236;9.894;2023-04-27T15:34:06;3.50;;;2.50;;
25988;SDS011;13778;48.236;9.894;2023-04-27T15:36:57;3.35;;;3.05;;
25988;SDS011;13778;48.236;9.894;2023-04-27T15:39:47;5.68;;;3.28;;
25988;SDS011;13778;48.236;9.894;2023-04-27T15:42:39;3.05;;;2.58;;
25988;SDS011;13778;48.236;9.894;2023-04-27T15:48:20;4.32;;;2.58;;
25988;SDS011;13778;48.236;9.894;2023-04-27T15:51:10;6.10;;;2.60;;
25988;SDS011;13778;48.236;9.894;2023-04-27T15:54:01;5.07;;;2.60;;
25988;SDS011;13778;48.236;9.894;2023-04-27T15:56:51;4.57;;;2.60;;
25988;SDS011;13778;48.236;9.894;2023-04-27T15:59:43;6.10;;;3.03;;
25988;SDS011;13778;48.236;9.894;2023-04-27T16:05:24;4.93;;;2.13;;
25988;SDS011;13778;48.236;9.894;2023-04-27T16:08:14;4.03;;;2.63;;
25988;SDS011;13778;48.236;9.894;2023-04-27T16:11:04;4.35;;;2.53;;
25988;SDS011;13778;48.236;9.894;2023-04-27T16:13:55;3.72;;;2.05;;
25988;SDS011;13778;48.236;9.894;2023-04-27T16:16:47;3.47;;;2.55;;
25988;SDS011;13778;48.236;9.894;2023-04-27T16:19:39;6.07;;;2.42;;
25988;SDS011;13778;48.236;9.894;2023-04-27T16:22:29;6.70;;;2.50;;
25988;SDS011;13778;48.236;9.894;2023-04-27T16:25:20;4.80;;;2.88;;
25988;SDS011;13778;48.236;9.894;2023-04-27T16:28:10;3.50;;;2.28;;
25988;SDS011;13778;48.236;9.894;2023-04-27T16:31:01;4.28;;;2.50;;
25988;SDS011;13778;48.236;9.894;2023-04-27T16:33:53;6.13;;;3.03;;
25988;SDS011;13778;48.236;9.894;2023-04-27T16:39:35;3.97;;;3.03;;
25988;SDS011;13778;48.236;9.894;2023-04-27T16:42:25;4.20;;;2.33;;
25988;SDS011;13778;48.236;9.894;2023-04-27T16:45:16;5.82;;;2.58;;
25988;SDS011;13778;48.236;9.894;2023-04-27T16:48:07;4.60;;;2.22;;
25988;SDS011;13778;48.236;9.894;2023-04-27T16:50:59;6.90;;;2.95;;
25988;SDS011;13778;48.236;9.894;2023-04-27T16:53:50;3.00;;;2.67;;
25988;SDS011;13778;48.236;9.894;2023-04-27T16:56:40;6.18;;;3.05;;
25988;SDS011;13778;48.236;9.894;2023-04-27T16:59:31;2.67;;;2.47;;
25988;SDS011;13778;48.236;9.894;2023-04-27T17:02:21;4.05;;;2.40;;
25988;SDS011;13778;48.236;9.894;2023-04-27T17:05:12;4.07;;;3.00;;
25988;SDS011;13778;48.236;9.894;2023-04-27T17:08:04;4.88;;;2.50;;
25988;SDS011;13778;48.236;9.894;2023-04-27T17:10:56;5.35;;;2.85;;
25988;SDS011;13778;48.236;9.894;2023-04-27T17:13:47;6.50;;;3.50;;
25988;SDS011;13778;48.236;9.894;2023-04-27T17:16:37;9.60;;;2.58;;
25988;SDS011;13778;48.236;9.894;2023-04-27T17:19:28;4.95;;;2.30;;
25988;SDS011;13778;48.236;9.894;2023-04-27T17:22:19;6.78;;;2.78;;
25988;SDS011;13778;48.236;9.894;2023-04-27T17:25:11;4.47;;;2.33;;
25988;SDS011;13778;48.236;9.894;2023-04-27T17:30:52;3.78;;;2.90;;
25988;SDS011;13778;48.236;9.894;2023-04-27T17:33:42;4.43;;;2.40;;
25988;SDS011;13778;48.236;9.894;2023-04-27T17:36:32;3.42;;;2.30;;
25988;SDS011;13778;48.236;9.894;2023-04-27T17:39:23;5.10;;;2.72;;
25988;SDS011;13778;48.236;9.894;2023-04-27T17:42:15;3.95;;;2.47;;
25988;SDS011;13778;48.236;9.894;2023-04-27T17:45:06;4.00;;;2.38;;
25988;SDS011;13778;48.236;9.894;2023-04-27T17:47:57;2.72;;;2.38;;
25988;SDS011;13778;48.236;9.894;2023-04-27T17:50:47;2.08;;;1.88;;
25988;SDS011;13778;48.236;9.894;2023-04-27T17:53:38;4.88;;;2.60;;
25988;SDS011;13778;48.236;9.894;2023-04-27T17:56:28;4.10;;;2.63;;
25988;SDS011;13778;48.236;9.894;2023-04-27T17:59:20;4.28;;;2.25;;
25988;SDS011;13778;48.236;9.894;2023-04-27T18:02:10;7.30;;;3.08;;
25988;SDS011;13778;48.236;9.894;2023-04-27T18:05:01;5.10;;;2.40;;
25988;SDS011;13778;48.236;9.894;2023-04-27T18:07:52;6.55;;;2.58;;
25988;SDS011;13778;48.236;9.894;2023-04-27T18:10:42;3.38;;;2.08;;